KHPN/HPN METAR and TAF weather

Enter ICAO airport designator
Station Type Date Time Source
KHPN METAR 2022/12/05 14:56 UTC NOAA

KHPN 051456Z 21005KT 10SM CLR 04/M06 A3028 RMK AO2 SLP262 T00441056 51017


Station Type Date Time Source
KHPN Decoded METAR 2022/12/05 14:56 UTC NOAA

WHITE PLAINS WESTCHESTER, NY, United States (KHPN) 41-04N 073-42W 121M
Dec 05, 2022 - 09:56 AM EST / 2022.12.05 1456 UTC
Wind: from the SSW (210 degrees) at 6 MPH (5 KT):0
Visibility: 10 mile(s):0
Sky conditions: clear
Temperature: 39.9 F (4.4 C)
Dew Point: 21.9 F (-5.6 C)
Relative Humidity: 48%
Pressure (altimeter): 30.28 in. Hg (1025 hPa)
Pressure tendency: 0.05 inches (1.7 hPa) higher than three hours ago
ob: KHPN 051456Z 21005KT 10SM CLR 04/M06 A3028 RMK AO2 SLP262 T00441056 51017
cycle: 15

Station Type Date Time Source
KHPN TAF 2022/12/05 15:42 UTC NOAA

TAF
AMD KHPN 051438Z 0515/0612 21004KT P6SM FEW250
FM051800 17007KT P6SM FEW150 SCT250
FM052200 VRB03KT P6SM FEW030 SCT150 BKN250
FM061000 10005KT P6SM VCSH OVC025 PROB30 0610/0612 3SM -RA BR BKN020
AMD NOT SKED

Example: see airport list